createdAt,value
2019-04-26T00:00:57.682Z,23.99
2019-04-26T00:01:57.713Z,24.01
2019-04-26T00:02:57.658Z,24.71
2019-04-26T00:04:08.851Z,24.19
2019-04-26T00:04:57.643Z,23.99
2019-04-26T00:05:57.629Z,24.90
2019-04-26T00:06:57.619Z,24.69
2019-04-26T00:07:57.622Z,24.69
2019-04-26T00:08:57.595Z,24.19
2019-04-26T00:09:57.581Z,24.90
2019-04-26T00:10:57.578Z,24.19
2019-04-26T00:11:57.560Z,24.79
2019-04-26T00:12:57.551Z,24.69
2019-04-26T00:13:57.547Z,24.30
2019-04-26T00:14:57.535Z,24.40
2019-04-26T00:15:57.523Z,24.51
2019-04-26T00:16:57.516Z,24.30
2019-04-26T00:17:57.509Z,24.69
2019-04-26T00:18:57.527Z,24.90
2019-04-26T00:19:57.479Z,24.90
2019-04-26T00:20:57.465Z,24.90
2019-04-26T00:21:57.450Z,24.90
2019-04-26T00:22:57.450Z,24.30
2019-04-26T00:23:57.435Z,24.49
2019-04-26T00:24:57.460Z,24.30
2019-04-26T00:25:57.408Z,24.30
2019-04-26T00:26:57.398Z,24.99
2019-04-26T00:27:57.395Z,24.49
2019-04-26T00:28:57.382Z,24.30
2019-04-26T00:29:57.368Z,24.49
2019-04-26T00:30:57.366Z,24.30
2019-04-26T00:31:57.342Z,24.49
2019-04-26T00:32:57.335Z,24.41
2019-04-26T00:33:57.326Z,24.61
2019-04-26T00:35:07.737Z,23.99
2019-04-26T00:35:57.342Z,24.49
2019-04-26T00:36:57.293Z,24.49
2019-04-26T00:37:57.282Z,24.60
2019-04-26T00:38:57.272Z,24.60
2019-04-26T00:39:57.259Z,24.49
2019-04-26T00:40:57.247Z,24.51
2019-04-26T00:41:57.253Z,24.49
2019-04-26T00:42:57.656Z,24.60
2019-04-26T00:43:57.213Z,24.49
2019-04-26T00:44:57.205Z,24.30
2019-04-26T00:45:57.194Z,24.40
2019-04-26T00:46:57.226Z,24.71
2019-04-26T00:47:57.175Z,24.41
2019-04-26T00:48:57.164Z,24.61
2019-04-26T00:49:57.156Z,24.69
2019-04-26T00:50:57.145Z,24.61
2019-04-26T00:51:57.128Z,24.51
2019-04-26T00:52:57.164Z,24.60
2019-04-26T00:53:57.110Z,24.51
2019-04-26T00:54:57.095Z,24.41
2019-04-26T00:55:57.090Z,24.60
2019-04-26T00:56:57.072Z,24.40
2019-04-26T00:57:57.069Z,24.51
2019-04-26T00:58:57.071Z,24.51
2019-04-26T00:59:57.048Z,24.61
2019-04-26T01:00:57.030Z,24.51
2019-04-26T01:01:57.019Z,24.51
2019-04-26T01:02:57.006Z,24.01
2019-04-26T01:03:57.004Z,24.51
2019-04-26T01:04:57.032Z,24.61
2019-04-26T01:06:07.059Z,24.80
2019-04-26T01:06:56.966Z,24.61
2019-04-26T01:07:56.957Z,24.01
2019-04-26T01:08:56.949Z,24.61
2019-04-26T01:09:56.934Z,23.91
2019-04-26T01:10:56.979Z,24.71
2019-04-26T01:11:56.912Z,24.61
2019-04-26T01:12:56.903Z,24.01
2019-04-26T01:13:56.887Z,24.11
2019-04-26T01:14:56.884Z,24.11
2019-04-26T01:15:56.871Z,24.01
2019-04-26T01:16:56.879Z,24.01
2019-04-26T01:17:56.925Z,24.80
2019-04-26T01:18:56.837Z,23.91
2019-04-26T01:19:56.825Z,23.91
2019-04-26T01:20:56.820Z,24.11
2019-04-26T01:21:56.809Z,24.01
2019-04-26T01:22:56.972Z,24.11
2019-04-26T01:23:56.785Z,24.21
2019-04-26T01:24:56.775Z,24.21
2019-04-26T01:25:56.763Z,24.21
2019-04-26T01:26:56.752Z,24.21
2019-04-26T01:27:56.736Z,23.91
2019-04-26T01:28:56.742Z,24.21
2019-04-26T01:29:56.717Z,24.21
2019-04-26T01:30:56.703Z,24.21
2019-04-26T01:31:56.693Z,24.21
2019-04-26T01:32:56.681Z,24.21
2019-04-26T01:33:56.677Z,24.21
2019-04-26T01:34:56.673Z,24.21
2019-04-26T01:35:56.653Z,24.41
2019-04-26T01:37:08.099Z,24.61
2019-04-26T01:37:56.627Z,24.21
2019-04-26T01:38:56.633Z,24.01
2019-04-26T01:39:56.628Z,24.21
2019-04-26T01:40:56.594Z,24.21
2019-04-26T01:41:56.594Z,24.21
2019-04-26T01:42:56.581Z,24.21
2019-04-26T01:43:56.569Z,24.21
2019-04-26T01:44:56.563Z,24.21
2019-04-26T01:45:56.577Z,24.21
2019-04-26T01:46:56.534Z,24.21
2019-04-26T01:47:56.519Z,24.41
2019-04-26T01:48:56.511Z,24.21
2019-04-26T01:49:56.503Z,24.51
2019-04-26T01:50:56.488Z,24.21
2019-04-26T01:51:56.494Z,24.41
2019-04-26T01:52:56.471Z,24.21
2019-04-26T01:53:56.461Z,24.21
2019-04-26T01:54:56.448Z,24.21
2019-04-26T01:55:56.472Z,24.21
2019-04-26T01:56:56.469Z,24.21
2019-04-26T01:57:56.413Z,24.21
2019-04-26T01:58:56.400Z,24.01
2019-04-26T01:59:56.396Z,24.21
2019-04-26T02:00:56.389Z,24.21
2019-04-26T02:01:56.368Z,24.01
2019-04-26T02:02:56.371Z,24.21
2019-04-26T02:03:56.348Z,24.21
2019-04-26T02:04:56.344Z,24.21
2019-04-26T02:05:56.326Z,24.30
2019-04-26T02:06:56.316Z,24.21
2019-04-26T02:08:06.651Z,24.11
2019-04-26T02:08:56.295Z,24.41
2019-04-26T02:09:56.288Z,24.41
2019-04-26T02:10:56.276Z,24.61
2019-04-26T02:11:56.259Z,24.61
2019-04-26T02:12:56.251Z,24.41
2019-04-26T02:13:56.252Z,24.41
2019-04-26T02:14:56.235Z,24.41
2019-04-26T02:15:56.219Z,24.21
2019-04-26T02:16:56.205Z,24.51
2019-04-26T02:17:56.197Z,24.41
2019-04-26T02:18:56.205Z,24.30
2019-04-26T02:19:56.174Z,24.32
2019-04-26T02:20:56.205Z,24.30
2019-04-26T02:21:56.154Z,24.41
2019-04-26T02:22:56.145Z,24.30
2019-04-26T02:23:56.131Z,24.21
2019-04-26T02:24:56.123Z,24.30
2019-04-26T02:25:56.116Z,24.30
2019-04-26T02:26:56.147Z,24.30
2019-04-26T02:27:56.092Z,24.41
2019-04-26T02:28:56.075Z,24.21
2019-04-26T02:29:56.072Z,24.21
2019-04-26T02:30:56.086Z,24.30
2019-04-26T02:31:56.053Z,24.30
2019-04-26T02:32:56.069Z,24.30
2019-04-26T02:33:56.024Z,24.30
2019-04-26T02:34:56.017Z,24.22
2019-04-26T02:35:56.007Z,24.41
2019-04-26T02:36:58.751Z,24.41
2019-04-26T02:37:55.977Z,24.11
2019-04-26T02:39:08.180Z,24.62
2019-04-26T02:39:55.958Z,24.30
2019-04-26T02:40:55.954Z,24.01
2019-04-26T02:41:55.942Z,24.11
2019-04-26T02:42:55.930Z,23.71
2019-04-26T02:43:55.955Z,24.30
2019-04-26T02:44:55.910Z,24.21
2019-04-26T02:45:55.909Z,24.21
2019-04-26T02:46:55.880Z,23.80
2019-04-26T02:47:55.871Z,24.01
2019-04-26T02:48:55.863Z,23.80
2019-04-26T02:49:55.866Z,23.80
2019-04-26T02:50:55.841Z,23.80
2019-04-26T02:51:55.828Z,24.01
2019-04-26T02:52:55.828Z,23.71
2019-04-26T02:53:55.812Z,23.71
2019-04-26T02:54:55.841Z,23.80
2019-04-26T02:55:55.786Z,23.82
2019-04-26T02:56:55.775Z,24.41
2019-04-26T02:57:55.771Z,24.22
2019-04-26T02:58:55.752Z,24.21
2019-04-26T02:59:55.750Z,24.51
2019-04-26T03:00:55.783Z,24.01
2019-04-26T03:01:55.796Z,24.21
2019-04-26T03:02:55.709Z,24.21
2019-04-26T03:03:55.697Z,23.80
2019-04-26T03:04:55.694Z,24.01
2019-04-26T03:05:55.682Z,24.01
2019-04-26T03:07:03.536Z,24.21
2019-04-26T03:07:56.658Z,24.01
2019-04-26T03:08:55.650Z,24.11
2019-04-26T03:10:06.692Z,24.21
2019-04-26T03:10:55.625Z,24.01
2019-04-26T03:11:55.620Z,24.01
2019-04-26T03:12:55.612Z,24.21
2019-04-26T03:13:55.593Z,24.21
2019-04-26T03:15:12.141Z,24.71
2019-04-26T03:15:56.569Z,24.41
2019-04-26T03:16:55.565Z,24.22
2019-04-26T03:17:55.587Z,23.82
2019-04-26T03:18:55.551Z,24.11
2019-04-26T03:19:55.525Z,24.30
2019-04-26T03:20:55.514Z,24.32
2019-04-26T03:21:55.512Z,24.32
2019-04-26T03:22:55.490Z,24.01
2019-04-26T03:23:58.583Z,24.22
2019-04-26T03:24:56.239Z,24.21
2019-04-26T03:25:55.464Z,24.11
2019-04-26T03:26:55.450Z,24.01
2019-04-26T03:27:55.445Z,24.41
2019-04-26T03:28:55.434Z,24.21
2019-04-26T03:30:17.489Z,24.62
2019-04-26T03:30:56.406Z,24.41
2019-04-26T03:31:55.701Z,24.21
2019-04-26T03:32:55.697Z,24.41
2019-04-26T03:33:55.638Z,24.30
2019-04-26T03:34:55.921Z,24.41
2019-04-26T03:35:58.062Z,24.41
2019-04-26T03:36:55.342Z,24.21
2019-04-26T03:37:55.332Z,24.21
2019-04-26T03:38:55.325Z,24.21
2019-04-26T03:39:55.330Z,24.71
2019-04-26T03:41:05.886Z,24.30
2019-04-26T03:41:55.290Z,24.21
2019-04-26T03:42:55.290Z,24.21
2019-04-26T03:43:55.270Z,24.01
2019-04-26T03:44:55.265Z,24.41
2019-04-26T03:45:55.250Z,24.41
2019-04-26T03:46:55.251Z,24.30
2019-04-26T03:47:55.272Z,24.30
2019-04-26T03:48:55.217Z,24.30
2019-04-26T03:49:55.203Z,24.11
2019-04-26T03:50:55.193Z,24.11
2019-04-26T03:51:55.195Z,24.61
2019-04-26T03:52:55.187Z,24.21
2019-04-26T03:53:55.164Z,24.21
2019-04-26T03:54:55.160Z,24.21
2019-04-26T03:55:55.141Z,24.21
2019-04-26T03:56:55.128Z,24.11
2019-04-26T03:57:55.134Z,24.11
2019-04-26T03:58:55.106Z,24.51
2019-04-26T03:59:55.094Z,24.21
2019-04-26T04:00:55.090Z,24.21
2019-04-26T04:01:55.085Z,24.30
2019-04-26T04:02:55.078Z,24.30
2019-04-26T04:03:55.058Z,25.01
2019-04-26T04:04:55.064Z,24.41
2019-04-26T04:05:55.033Z,24.99
2019-04-26T04:07:03.843Z,25.11
2019-04-26T04:07:56.065Z,24.71
2019-04-26T04:08:55.000Z,25.11
2019-04-26T04:09:54.984Z,25.11
2019-04-26T04:10:54.977Z,24.30
2019-04-26T04:12:11.820Z,24.61
2019-04-26T04:12:55.959Z,24.71
2019-04-26T04:13:55.221Z,24.61
2019-04-26T04:14:54.937Z,24.99
2019-04-26T04:15:54.925Z,25.11
2019-04-26T04:16:54.913Z,25.10
2019-04-26T04:17:54.897Z,25.11
2019-04-26T04:18:54.887Z,24.99
2019-04-26T04:19:54.908Z,24.99
2019-04-26T04:20:54.875Z,25.01
2019-04-26T04:21:54.863Z,24.71
2019-04-26T04:22:54.845Z,24.90
2019-04-26T04:23:54.835Z,24.71
2019-04-26T04:24:54.822Z,24.69
2019-04-26T04:25:54.824Z,24.99
2019-04-26T04:26:54.808Z,24.69
2019-04-26T04:27:54.856Z,24.69
2019-04-26T04:28:54.780Z,24.69
2019-04-26T04:29:55.758Z,24.69
2019-04-26T04:30:54.784Z,24.79
2019-04-26T04:31:54.745Z,24.90
2019-04-26T04:32:54.736Z,25.10
2019-04-26T04:33:54.731Z,24.99
2019-04-26T04:34:54.720Z,25.10
2019-04-26T04:35:54.708Z,25.10
2019-04-26T04:36:54.704Z,25.10
2019-04-26T04:38:08.613Z,24.79
2019-04-26T04:39:11.197Z,25.10
2019-04-26T04:39:55.662Z,25.10
2019-04-26T04:40:54.647Z,24.90
2019-04-26T04:41:54.688Z,24.90
2019-04-26T04:43:05.352Z,24.30
2019-04-26T04:43:54.619Z,24.90
2019-04-26T04:44:54.613Z,25.11
2019-04-26T04:45:54.631Z,24.69
2019-04-26T04:46:54.588Z,24.69
2019-04-26T04:47:54.618Z,25.10
2019-04-26T04:48:54.575Z,24.99
2019-04-26T04:49:54.552Z,24.69
2019-04-26T04:50:54.543Z,24.69
2019-04-26T04:51:54.535Z,24.99
2019-04-26T04:52:54.521Z,24.69
2019-04-26T04:53:54.554Z,24.69
2019-04-26T04:55:06.444Z,24.90
2019-04-26T04:55:55.489Z,24.69
2019-04-26T04:56:54.475Z,24.79
2019-04-26T04:57:54.465Z,24.69
2019-04-26T04:58:54.454Z,24.99
2019-04-26T04:59:54.487Z,24.69
2019-04-26T05:00:54.437Z,24.79
2019-04-26T05:01:54.427Z,24.69
2019-04-26T05:02:54.432Z,24.10
2019-04-26T05:03:54.403Z,24.19
2019-04-26T05:04:54.397Z,25.20
2019-04-26T05:06:06.881Z,24.99
2019-04-26T05:06:55.364Z,25.10
2019-04-26T05:08:05.375Z,25.10
2019-04-26T05:08:55.345Z,24.30
2019-04-26T05:09:54.335Z,24.88
2019-04-26T05:10:54.324Z,24.79
2019-04-26T05:11:54.331Z,24.69
2019-04-26T05:12:54.375Z,25.09
2019-04-26T05:14:04.502Z,24.69
2019-04-26T05:14:54.330Z,24.68
2019-04-26T05:15:54.955Z,24.79
2019-04-26T05:16:54.664Z,24.79
2019-04-26T05:17:54.255Z,24.58
2019-04-26T05:18:54.807Z,24.48
2019-04-26T05:19:54.883Z,24.29
2019-04-26T05:20:55.406Z,24.18
2019-04-26T05:21:55.100Z,24.38
2019-04-26T05:22:55.425Z,24.29
2019-04-26T05:23:55.190Z,24.17
2019-04-26T05:24:55.327Z,24.08
2019-04-26T05:25:54.166Z,24.08
2019-04-26T05:26:54.153Z,24.18
2019-04-26T05:27:55.090Z,24.18
2019-04-26T05:28:54.138Z,24.29
2019-04-26T05:29:54.174Z,24.38
2019-04-26T05:30:54.121Z,24.37
2019-04-26T05:31:54.355Z,24.29
2019-04-26T05:32:54.716Z,24.17
2019-04-26T05:33:54.632Z,24.18
2019-04-26T05:34:54.828Z,24.87
2019-04-26T05:35:55.150Z,24.27
2019-04-26T05:36:54.800Z,24.07
2019-04-26T05:37:55.129Z,24.37
2019-04-26T05:38:54.027Z,24.87
2019-04-26T05:39:54.012Z,24.27
2019-04-26T05:40:54.004Z,24.27
2019-04-26T05:41:54.026Z,24.77
2019-04-26T05:42:53.982Z,25.07
2019-04-26T05:43:54.016Z,24.67
2019-04-26T05:45:06.102Z,24.07
2019-04-26T05:45:53.953Z,24.87
2019-04-26T05:46:53.941Z,24.77
2019-04-26T05:48:05.297Z,24.37
2019-04-26T05:48:55.710Z,24.96
2019-04-26T05:49:53.901Z,25.26
2019-04-26T05:50:53.891Z,25.37
2019-04-26T05:51:53.891Z,24.96
2019-04-26T05:52:55.163Z,25.06
2019-04-26T05:53:54.974Z,25.36
2019-04-26T05:54:54.048Z,25.17
2019-04-26T05:55:53.983Z,24.86
2019-04-26T05:56:54.282Z,24.56
2019-04-26T05:57:54.320Z,24.76
2019-04-26T05:58:54.535Z,25.26
2019-04-26T05:59:54.920Z,25.06
2019-04-26T06:00:53.964Z,25.16
2019-04-26T06:01:54.813Z,25.26
2019-04-26T06:02:54.668Z,25.06
2019-04-26T06:03:54.321Z,25.46
2019-04-26T06:04:53.779Z,25.46
2019-04-26T06:05:54.408Z,25.86
2019-04-26T06:06:53.725Z,26.25
2019-04-26T06:07:54.231Z,25.86
2019-04-26T06:08:53.860Z,25.86
2019-04-26T06:09:54.453Z,25.95
2019-04-26T06:10:54.157Z,26.25
2019-04-26T06:11:54.616Z,26.34
2019-04-26T06:12:54.526Z,25.55
2019-04-26T06:13:53.707Z,26.34
2019-04-26T06:14:54.652Z,25.85
2019-04-26T06:16:03.454Z,25.74
2019-04-26T06:16:54.803Z,26.04
2019-04-26T06:17:53.602Z,25.95
2019-04-26T06:18:53.597Z,26.15
2019-04-26T06:19:53.575Z,25.95
2019-04-26T06:20:54.101Z,25.85
2019-04-26T06:21:53.826Z,25.85
2019-04-26T06:22:56.244Z,25.65
2019-04-26T06:23:53.935Z,26.25
2019-04-26T06:24:54.230Z,25.85
2019-04-26T06:25:55.519Z,25.85
2019-04-26T06:26:54.314Z,25.74
2019-04-26T06:27:54.514Z,25.65
2019-04-26T06:28:53.533Z,25.15
2019-04-26T06:29:54.125Z,25.24
2019-04-26T06:30:54.421Z,25.55
2019-04-26T06:31:54.558Z,25.05
2019-04-26T06:33:00.686Z,24.85
2019-04-26T06:33:55.161Z,24.75
2019-04-26T06:34:53.780Z,25.15
2019-04-26T06:35:54.752Z,24.65
2019-04-26T06:36:54.829Z,25.15
2019-04-26T06:37:54.007Z,25.45
2019-04-26T06:38:54.464Z,25.84
2019-04-26T06:39:54.641Z,26.15
2019-04-26T06:40:53.517Z,25.74
2019-04-26T06:41:54.751Z,25.65
2019-04-26T06:42:54.711Z,26.04
2019-04-26T06:43:53.953Z,25.74
2019-04-26T06:44:54.892Z,26.04
2019-04-26T06:45:54.123Z,26.25
2019-04-26T06:47:04.031Z,25.95
2019-04-26T06:47:53.282Z,26.14
2019-04-26T06:48:53.289Z,25.93
2019-04-26T06:49:53.252Z,25.85
2019-04-26T06:50:53.256Z,25.85
2019-04-26T06:51:53.233Z,25.65
2019-04-26T06:52:53.221Z,25.84
2019-04-26T06:53:53.215Z,25.65
2019-04-26T06:54:53.236Z,25.95
2019-04-26T06:55:53.193Z,26.15
2019-04-26T06:56:53.179Z,25.84
2019-04-26T06:57:53.169Z,25.35
2019-04-26T06:58:53.158Z,25.74
2019-04-26T06:59:53.144Z,25.45
2019-04-26T07:00:53.170Z,25.85
2019-04-26T07:01:53.131Z,25.63
2019-04-26T07:02:53.112Z,25.63
2019-04-26T07:03:53.106Z,25.63
2019-04-26T07:04:53.098Z,25.54
2019-04-26T07:05:53.092Z,25.15
2019-04-26T07:06:53.111Z,24.45
2019-04-26T07:07:53.066Z,25.13
2019-04-26T07:08:57.681Z,25.23
2019-04-26T07:09:53.037Z,25.45
2019-04-26T07:10:53.135Z,25.23
2019-04-26T07:11:53.018Z,25.24
2019-04-26T07:12:53.046Z,25.35
2019-04-26T07:13:52.996Z,25.65
2019-04-26T07:14:52.982Z,25.63
2019-04-26T07:15:52.974Z,25.34
2019-04-26T07:16:52.967Z,25.04
2019-04-26T07:18:04.392Z,24.93
2019-04-26T07:18:52.949Z,25.13
2019-04-26T07:19:52.936Z,25.04
2019-04-26T07:20:52.918Z,25.23
2019-04-26T07:21:52.920Z,25.04
2019-04-26T07:22:52.898Z,25.54
2019-04-26T07:23:52.935Z,25.04
2019-04-26T07:24:52.880Z,25.54
2019-04-26T07:25:52.872Z,25.23
2019-04-26T07:26:52.852Z,25.93
2019-04-26T07:28:03.342Z,25.84
2019-04-26T07:28:53.880Z,25.73
2019-04-26T07:29:52.828Z,25.54
2019-04-26T07:30:52.816Z,26.23
2019-04-26T07:31:52.814Z,26.32
2019-04-26T07:32:52.789Z,26.32
2019-04-26T07:33:52.777Z,26.62
2019-04-26T07:34:52.777Z,27.42
2019-04-26T07:35:52.759Z,27.12
2019-04-26T07:36:52.753Z,27.12
2019-04-26T07:37:52.739Z,27.32
2019-04-26T07:39:10.439Z,26.82
2019-04-26T07:39:53.754Z,27.72
2019-04-26T07:40:52.708Z,27.92
2019-04-26T07:41:52.691Z,27.40
2019-04-26T07:42:52.685Z,27.32
2019-04-26T07:43:52.677Z,28.61
2019-04-26T07:44:52.659Z,28.30
2019-04-26T07:45:52.696Z,27.90
2019-04-26T07:46:52.642Z,27.70
2019-04-26T07:47:52.630Z,27.90
2019-04-26T07:48:52.629Z,28.30
2019-04-26T07:49:52.608Z,28.50
2019-04-26T07:50:52.599Z,28.70
2019-04-26T07:51:52.628Z,28.30
2019-04-26T07:52:52.577Z,28.20
2019-04-26T07:53:52.587Z,28.60
2019-04-26T07:54:52.554Z,27.90
2019-04-26T07:55:52.559Z,28.28
2019-04-26T07:56:52.543Z,28.39
2019-04-26T07:57:52.571Z,27.39
2019-04-26T07:58:52.517Z,27.70
2019-04-26T07:59:52.513Z,27.39
2019-04-26T08:00:52.487Z,27.09
2019-04-26T08:01:52.482Z,26.90
2019-04-26T08:02:52.477Z,26.59
2019-04-26T08:03:52.470Z,26.69
2019-04-26T08:04:52.454Z,26.99
2019-04-26T08:05:52.457Z,27.09
2019-04-26T08:06:52.432Z,27.19
2019-04-26T08:07:52.420Z,27.29
2019-04-26T08:08:52.453Z,26.89
2019-04-26T08:10:04.451Z,27.20
2019-04-26T08:10:52.381Z,26.89
2019-04-26T08:11:52.380Z,26.69
2019-04-26T08:12:52.362Z,26.89
2019-04-26T08:13:52.349Z,26.99
2019-04-26T08:14:52.380Z,27.59
2019-04-26T08:15:52.327Z,27.39
2019-04-26T08:16:52.323Z,28.09
2019-04-26T08:17:52.313Z,28.17
2019-04-26T08:18:52.358Z,27.29
2019-04-26T08:19:53.505Z,27.69
2019-04-26T08:20:52.287Z,27.69
2019-04-26T08:21:52.267Z,26.98
2019-04-26T08:22:52.358Z,26.98
2019-04-26T08:23:52.543Z,27.48
2019-04-26T08:24:52.237Z,26.68
2019-04-26T08:25:52.273Z,27.08
2019-04-26T08:26:52.216Z,26.98
2019-04-26T08:27:52.201Z,27.48
2019-04-26T08:28:52.190Z,26.78
2019-04-26T08:29:52.181Z,25.98
2019-04-26T08:30:52.169Z,25.68
2019-04-26T08:31:53.421Z,26.08
2019-04-26T08:32:53.143Z,25.49
2019-04-26T08:33:52.141Z,26.28
2019-04-26T08:34:52.129Z,25.89
2019-04-26T08:35:53.393Z,25.98
2019-04-26T08:36:52.105Z,26.08
2019-04-26T08:37:52.113Z,26.28
2019-04-26T08:38:52.589Z,25.89
2019-04-26T08:39:52.129Z,25.59
2019-04-26T08:41:04.925Z,25.29
2019-04-26T08:41:52.053Z,25.29
2019-04-26T08:42:53.388Z,24.99
2019-04-26T08:43:53.034Z,25.97
2019-04-26T08:44:52.024Z,25.68
2019-04-26T08:46:01.669Z,25.68
2019-04-26T08:46:52.995Z,26.47
2019-04-26T08:47:53.555Z,25.77
2019-04-26T08:48:52.019Z,25.37
2019-04-26T08:49:51.965Z,25.48
2019-04-26T08:50:51.956Z,25.57
2019-04-26T08:51:52.249Z,25.77
2019-04-26T08:52:51.936Z,26.57
2019-04-26T08:53:51.919Z,26.97
2019-04-26T08:54:51.954Z,26.57
2019-04-26T08:55:51.900Z,27.06
2019-04-26T08:56:51.892Z,27.26
2019-04-26T08:57:51.883Z,27.06
2019-04-26T08:58:51.867Z,27.65
2019-04-26T08:59:51.859Z,27.85
2019-04-26T09:00:51.877Z,27.85
2019-04-26T09:01:51.838Z,27.85
2019-04-26T09:02:51.825Z,27.65
2019-04-26T09:03:51.815Z,27.55
2019-04-26T09:04:51.800Z,28.25
2019-04-26T09:05:51.790Z,28.15
2019-04-26T09:06:51.789Z,27.65
2019-04-26T09:07:53.519Z,27.95
2019-04-26T09:08:52.761Z,28.03
2019-04-26T09:09:57.402Z,27.64
2019-04-26T09:10:52.737Z,27.64
2019-04-26T09:12:03.926Z,28.13
2019-04-26T09:12:52.716Z,27.94
2019-04-26T09:13:51.711Z,27.83
2019-04-26T09:14:51.700Z,27.73
2019-04-26T09:15:51.717Z,28.43
2019-04-26T09:16:51.727Z,28.13
2019-04-26T09:17:51.662Z,28.52
2019-04-26T09:18:54.270Z,28.12
2019-04-26T09:19:51.645Z,28.12
2019-04-26T09:20:51.640Z,28.52
2019-04-26T09:21:52.123Z,28.32
2019-04-26T09:22:51.620Z,27.82
2019-04-26T09:23:52.165Z,28.30
2019-04-26T09:24:55.119Z,27.82
2019-04-26T09:25:59.122Z,28.60
2019-04-26T09:26:52.575Z,28.20
2019-04-26T09:27:51.567Z,28.01
2019-04-26T09:28:52.956Z,28.41
2019-04-26T09:29:51.545Z,28.30
2019-04-26T09:30:51.531Z,28.20
2019-04-26T09:31:54.593Z,28.60
2019-04-26T09:32:51.511Z,28.11
2019-04-26T09:33:51.497Z,28.11
2019-04-26T09:34:51.522Z,27.70
2019-04-26T09:35:51.478Z,28.01
2019-04-26T09:36:51.465Z,27.51
2019-04-26T09:37:51.450Z,26.81
2019-04-26T09:38:51.447Z,26.92
2019-04-26T09:39:51.436Z,26.72
2019-04-26T09:40:52.762Z,26.62
2019-04-26T09:41:51.412Z,26.92
2019-04-26T09:43:02.748Z,26.81
2019-04-26T09:43:51.388Z,26.52
2019-04-26T09:44:51.380Z,26.22
2019-04-26T09:45:51.373Z,25.82
2019-04-26T09:46:52.713Z,25.82
2019-04-26T09:47:51.349Z,25.23
2019-04-26T09:48:51.344Z,25.62
2019-04-26T09:49:51.323Z,25.43
2019-04-26T09:50:51.319Z,25.02
2019-04-26T09:51:51.347Z,25.52
2019-04-26T09:52:51.296Z,25.92
2019-04-26T09:53:51.278Z,25.43
2019-04-26T09:54:51.277Z,25.72
2019-04-26T09:55:51.262Z,25.92
2019-04-26T09:56:51.247Z,24.93
2019-04-26T09:57:53.539Z,25.72
2019-04-26T09:58:52.233Z,25.32
2019-04-26T09:59:51.228Z,24.73
2019-04-26T10:00:51.213Z,25.02
2019-04-26T10:01:51.195Z,25.32
2019-04-26T10:02:51.187Z,25.13
2019-04-26T10:03:51.209Z,24.73
2019-04-26T10:04:51.171Z,25.43
2019-04-26T10:05:52.152Z,24.83
2019-04-26T10:06:51.152Z,25.13
2019-04-26T10:07:51.135Z,25.52
2019-04-26T10:08:52.461Z,24.33
2019-04-26T10:09:51.631Z,24.93
2019-04-26T10:10:51.726Z,24.93
2019-04-26T10:11:51.091Z,24.33
2019-04-26T10:12:51.078Z,23.93
2019-04-26T10:14:01.875Z,24.93
2019-04-26T10:14:51.065Z,24.63
2019-04-26T10:15:51.092Z,24.53
2019-04-26T10:16:51.038Z,23.93
2019-04-26T10:17:51.138Z,24.13
2019-04-26T10:18:54.485Z,24.23
2019-04-26T10:19:51.014Z,24.04
2019-04-26T10:20:51.003Z,23.93
2019-04-26T10:21:51.034Z,24.02
2019-04-26T10:22:50.977Z,24.22
2019-04-26T10:23:50.964Z,24.22
2019-04-26T10:24:50.964Z,24.33
2019-04-26T10:25:51.901Z,23.74
2019-04-26T10:26:50.937Z,24.12
2019-04-26T10:27:51.237Z,25.91
2019-04-26T10:28:52.187Z,27.59
2019-04-26T10:29:50.908Z,25.91
2019-04-26T10:30:50.895Z,26.21
2019-04-26T10:31:51.835Z,26.31
2019-04-26T10:32:50.914Z,25.71
2019-04-26T10:33:50.860Z,25.42
2019-04-26T10:34:50.846Z,25.21
2019-04-26T10:35:52.578Z,25.01
2019-04-26T10:36:51.829Z,24.91
2019-04-26T10:37:52.640Z,25.31
2019-04-26T10:38:54.467Z,24.72
2019-04-26T10:39:50.797Z,25.01
2019-04-26T10:40:50.818Z,24.02
2019-04-26T10:41:50.776Z,24.62
2019-04-26T10:42:50.781Z,24.42
2019-04-26T10:43:50.751Z,24.41
2019-04-26T10:45:01.272Z,23.93
2019-04-26T10:45:53.897Z,23.82
2019-04-26T10:46:55.744Z,23.82
2019-04-26T10:47:51.714Z,23.93
2019-04-26T10:48:51.303Z,23.72
2019-04-26T10:49:54.310Z,23.82
2019-04-26T10:50:51.687Z,24.02
2019-04-26T10:51:50.669Z,23.63
2019-04-26T10:52:54.585Z,24.22
2019-04-26T10:53:51.648Z,24.22
2019-04-26T10:54:50.644Z,24.12
2019-04-26T10:55:51.535Z,24.42
2019-04-26T10:56:50.613Z,24.42
2019-04-26T10:57:50.606Z,24.02
2019-04-26T10:58:50.591Z,23.82
2019-04-26T10:59:50.583Z,23.82
2019-04-26T11:00:52.834Z,24.43
2019-04-26T11:01:50.601Z,24.23
2019-04-26T11:02:50.561Z,24.73
2019-04-26T11:03:50.543Z,24.53
2019-04-26T11:04:50.532Z,23.63
2019-04-26T11:05:53.668Z,23.83
2019-04-26T11:06:50.512Z,23.93
2019-04-26T11:07:53.308Z,23.93
2019-04-26T11:08:50.493Z,24.13
2019-04-26T11:09:51.239Z,23.04
2019-04-26T11:10:50.471Z,23.72
2019-04-26T11:11:50.454Z,23.43
2019-04-26T11:12:50.446Z,23.74
2019-04-26T11:13:50.476Z,23.83
2019-04-26T11:14:53.270Z,23.83
2019-04-26T11:17:03.250Z,23.74
2019-04-26T11:18:03.199Z,23.74
2019-04-26T11:19:03.194Z,23.54
2019-04-26T11:20:06.236Z,23.64
2019-04-26T11:21:04.173Z,23.14
2019-04-26T11:22:03.165Z,23.93
2019-04-26T11:23:03.188Z,23.04
2019-04-26T11:24:03.141Z,22.94
2019-04-26T11:25:03.125Z,23.34
2019-04-26T11:26:03.117Z,22.94
2019-04-26T11:27:05.286Z,23.04
2019-04-26T11:28:04.131Z,23.93
2019-04-26T11:29:03.105Z,23.64
2019-04-26T11:30:11.570Z,23.14
2019-04-26T11:31:04.062Z,23.83
2019-04-26T11:32:04.233Z,23.24
2019-04-26T11:33:03.041Z,23.14
2019-04-26T11:35:04.017Z,22.55
2019-04-26T11:36:03.357Z,23.93
2019-04-26T11:37:03.006Z,23.03
2019-04-26T11:38:03.011Z,23.04
2019-04-26T11:39:05.681Z,23.24
2019-04-26T11:40:02.970Z,22.84
2019-04-26T11:40:14.299Z,24.12
2019-04-26T11:41:06.434Z,23.04
2019-04-26T11:42:02.946Z,23.23
2019-04-26T11:43:02.936Z,22.84
2019-04-26T11:44:03.031Z,23.44
2019-04-26T11:45:06.352Z,23.04
2019-04-26T11:46:04.399Z,22.74
2019-04-26T11:47:09.874Z,23.34
2019-04-26T11:48:03.366Z,23.24
2019-04-26T11:49:03.244Z,23.34
2019-04-26T11:50:02.922Z,22.94
2019-04-26T11:51:02.915Z,22.63
2019-04-26T11:52:04.015Z,22.73
2019-04-26T11:53:06.297Z,22.83
2019-04-26T11:54:03.824Z,22.63
2019-04-26T11:55:02.815Z,22.83
2019-04-26T11:56:04.523Z,22.83
2019-04-26T11:57:02.824Z,23.03
2019-04-26T11:58:02.782Z,22.93
2019-04-26T11:59:03.377Z,22.73
2019-04-26T12:00:05.570Z,23.02
2019-04-26T12:01:02.742Z,22.52
2019-04-26T12:02:02.736Z,23.02
2019-04-26T12:03:02.732Z,22.92
2019-04-26T12:04:02.711Z,22.82
2019-04-26T12:05:02.701Z,23.02
2019-04-26T12:06:02.686Z,23.22
2019-04-26T12:07:02.676Z,23.32
2019-04-26T12:08:02.681Z,22.61
2019-04-26T12:09:02.700Z,22.41
2019-04-26T12:10:05.814Z,22.71
2019-04-26T12:11:03.634Z,22.81
2019-04-26T12:12:04.695Z,23.01
2019-04-26T12:13:05.796Z,23.41
2019-04-26T12:14:04.058Z,22.71
2019-04-26T12:15:03.818Z,22.41
2019-04-26T12:16:04.382Z,22.70
2019-04-26T12:17:02.575Z,21.71
2019-04-26T12:18:15.115Z,22.20
2019-04-26T12:19:02.552Z,21.92
2019-04-26T12:20:02.546Z,22.11
2019-04-26T12:21:02.563Z,22.20
2019-04-26T12:22:04.166Z,22.50
2019-04-26T12:23:03.524Z,23.00
2019-04-26T12:24:02.495Z,22.30
2019-04-26T12:25:03.368Z,22.30
2019-04-26T12:26:02.476Z,21.71
2019-04-26T12:27:02.545Z,22.11
2019-04-26T12:28:06.180Z,21.71
2019-04-26T12:29:02.442Z,22.11
2019-04-26T12:30:02.440Z,22.11
2019-04-26T12:31:02.426Z,21.81
2019-04-26T12:32:02.416Z,22.11
2019-04-26T12:33:02.408Z,22.11
2019-04-26T12:34:02.403Z,21.91
2019-04-26T12:35:02.381Z,21.91
2019-04-26T12:36:02.374Z,22.11
2019-04-26T12:37:02.358Z,22.70
2019-04-26T12:38:02.409Z,22.30
2019-04-26T12:39:03.281Z,22.60
2019-04-26T12:40:02.329Z,22.60
2019-04-26T12:41:02.316Z,22.60
2019-04-26T12:42:02.305Z,22.11
2019-04-26T12:43:02.301Z,21.81
2019-04-26T12:44:03.297Z,22.30
2019-04-26T12:45:02.279Z,22.11
2019-04-26T12:46:02.262Z,22.11
2019-04-26T12:47:03.453Z,22.30
2019-04-26T12:48:02.244Z,22.70
2019-04-26T12:49:12.971Z,21.61
2019-04-26T12:50:02.235Z,21.81
2019-04-26T12:51:02.219Z,21.91
2019-04-26T12:52:02.208Z,22.11
2019-04-26T12:53:02.207Z,22.20
2019-04-26T12:54:03.777Z,22.11